To NAV CANADA Home Page Login to a new session Search on AWWS site Feedback and Comments Disclaimer Vers la page française équivalente Tips FAQ What's new on the site To the Forecasts and Observations / NOTAM section To "File a Flight Plan" website Publications and other links Update of the User's profile FIC Telephone Numbers My Weather Data Folder Route Weather Data Regional Weather Data Local Weather Data To the Forecasts and Observations / NOTAM section
Request Generated 02/23/2017 at 20:46:57 UTC . Weather information available at that time is displayed.

METAR/TAF

NAUJAAT/NU    

METAR CYUT 232000Z 34004KT 25SM FEW220 M25/M28 A3018 RMK CS1 CS TR
SLP226=
METAR CYUT 231900Z 29004KT 270V340 25SM FEW220 M25/M29 A3018 RMK CS1
CS TR SLP227=
METAR CYUT 231800Z 30004KT 25SM SKC M25/M29 A3019 RMK SLP230=

TAF CYUT 231838Z 2319/2323 30006KT P6SM FEW080
RMK NXT FCST WILL BE ISSUED AT 241445Z=
Your time UTC time
Weather data provided by Environment Canada and NAV CANADA